Tiempo atmosférico en la estación meteorológica de Ponferrada, León (534 m.)



Fecha
DESCASC
Temp. máxima en grados centígrados (hora)
DESCASC
Temp. mínima en grados centígrados (hora)
DESCASC
Temp. media en grados centígrados
DESCASC
Racha de viento máxima en m/sg (hora)
DESCASC
Velocidad máxima media en intervalos de 10 minutos(hora)
DESCASC
Precipitaciones diarias en mm
DESCASC
Precipitaciones de 00:00 a 06:00 en mm
DESCASC
Precipitaciones de 06:00 a 12:00 en mm
DESCASC
Precipitaciones de 12:00 a 18:00 en mm
DESCASC
Precipitaciones de 18:00 a 24:00 en mm
DESCASC
15-08-2019 31.2 (17:00) 14.4 (08:00) 22.8 7.78 (19:20) 4.44 (19:20) 0 0 0 0 0
14-08-2019 30.3 (16:30) 12.1 (00:00) 21.2 9.44 (18:30) 5 (20:10) 0 0 0 0 0
13-08-2019 28.1 (19:20) 9.2 (00:00) 18.7 7.22 (20:30) 3.89 (20:30) 0 0 0 0 0
12-08-2019 22.6 (15:50) 9.3 (00:00) 16 6.39 (15:00) 3.33 (17:10) 0 0 0 0 0
11-08-2019 23.2 (15:30) 14.3 (00:00) 18.8 11.39 (17:30) 5.56 (17:40) 0 0 0 0 0
10-08-2019 25.3 (17:00) 12.9 (00:00) 19.1 7.5 (19:20) 4.17 (19:20) 0 0 0 0 0
09-08-2019 24 (00:00) 17.7 (00:00) 20.9 10.83 (18:00) 4.72 (14:50) 0.8 0.4 0.4 0 0
08-08-2019 25.8 (20:10) 18.1 (00:00) 21.9 9.44 (23:30) 4.44 (23:40) 5.6 0.6 0 5 0
07-08-2019 -- (--) -- (--) -- -- (--) -- (--) -- 0 -- -- --
06-08-2019 28 (16:50) 16.5 (00:00) 22.3 10.28 (17:50) 5.28 (17:40) 0 0 0 0 0
05-08-2019 32 (17:50) 15 (00:00) 23.5 8.06 (19:50) 4.17 (19:50) 0 0 0 0 0
04-08-2019 31.7 (17:50) 16.7 (00:00) 24.2 10.28 (18:30) 4.44 (18:40) 0 0 0 0 0
03-08-2019 33.6 (17:10) 15.9 (00:00) 24.7 8.61 (19:20) 4.44 (19:20) 0 0 0 0 0
02-08-2019 33.1 (18:40) 14.3 (00:00) 23.7 6.67 (19:50) 3.89 (19:50) 0 0 0 0 0
01-08-2019 -- (--) -- (--) -- -- (--) -- (--) -- -- 0 0 0
31-07-2019 28.9 (18:10) 10.7 (00:00) 19.8 6.11 (17:30) 3.61 (18:40) -- 0 0 -- 0
30-07-2019 -- (--) -- (--) -- -- (--) -- (--) -- -- -- 0 0
29-07-2019 -- (--) -- (--) -- -- (--) -- (--) -- -- -- -- --
28-07-2019 28.5 (18:40) 10 (00:00) 19.3 6.39 (14:20) 3.33 (19:20) 0 0 0 0 0
27-07-2019 23.2 (18:00) 13.8 (00:00) 18.5 6.67 (00:20) 3.89 (01:10) 1.6 0.2 1.2 0.2 0
26-07-2019 25.4 (16:20) 13.1 (00:00) 19.3 8.33 (17:00) 4.44 (17:20) 0 0 0 0 0
25-07-2019 31.2 (14:50) 15.7 (00:00) 23.5 10 (15:00) 6.11 (15:00) 0 0 0 0 0
24-07-2019 34.9 (17:20) 17.4 (00:00) 26.2 8.06 (17:40) 4.17 (20:50) -- -- 0 0 0
23-07-2019 33.6 (17:30) 19.8 (00:00) 26.7 12.5 (00:40) 6.67 (00:40) 6.2 0 0 0 6.2
22-07-2019 37.6 (19:20) 17 (00:00) 27.3 15 (22:00) 7.22 (23:59) 0 0 0 0 0
21-07-2019 33.1 (17:20) 15.1 (00:00) 24.1 7.5 (18:00) 3.33 (18:40) 0 0 0 0 0
20-07-2019 31.6 (17:20) 16.9 (00:00) 24.3 8.06 (19:20) 4.17 (19:00) 0 0 0 0 0
19-07-2019 34.1 (16:50) 15.4 (00:00) 24.7 9.72 (16:40) 5 (17:00) -- -- 0 0 0

Gráficas

Temp. máximas Temp. mínimas Temp. medias Precipitaciones Rachas de viento máximas Velocidades máximas media en intervalos de 10 minutos

Datos horarios

Fecha y hora oficial Temperatura (ºC) Velocidad del viento (km/h) Dirección del viento Racha (km/h) Dirección de racha Precipitación (mm) Presión (hPa) Tendencia (hPa) Humedad (%)
2019-08-17 23:00:00 23.9 2 Noroeste 6 Oeste 0 952.8 1.5 49
2019-08-17 22:00:00 26.3 3 Noroeste 13 Noroeste 0 952.1 0.6 42
2019-08-17 21:00:00 28.5 7 Noroeste 20 Noroeste 0 951.5 -0.3 35
2019-08-17 20:00:00 30.6 12 Noroeste 24 Noroeste 0 951.3 -0.8 30
2019-08-17 19:00:00 31.9 13 Noroeste 31 Oeste 0 951.5 -1.2 28
2019-08-17 18:00:00 32.6 14 Oeste 28 Oeste 0 951.8 -1.7 25
2019-08-17 17:00:00 32.6 10 Noroeste 29 Noroeste 0 952.1 -2.1 25
2019-08-17 16:00:00 32.3 10 Oeste 25 Sudoeste 0 952.7 -2.4 26
2019-08-17 15:00:00 30.8 10 Oeste 26 Noroeste 0 953.5 -2.2 27
2019-08-17 14:00:00 28.8 9 Noroeste 22 Noroeste 0 954.2 -2.1 32
2019-08-17 13:00:00 25.5 4 Norte 12 Norte 0 955.1 -1.5 46
2019-08-17 12:00:00 23.8 4 Noroeste 11 Noroeste 0 955.7 -0.9 51
2019-08-17 11:00:00 20.4 4 Oeste 10 Oeste 0 956.3 -0.2 63
2019-08-17 10:00:00 18.9 4 Oeste 8 Oeste 0 956.6 0.4 67
2019-08-17 09:00:00 16.3 2 Oeste 5 Noroeste 0 956.6 0.6 79
2019-08-17 08:00:00 14.9 2 Norte 9 Sur 0 956.5 0.3 84
2019-08-17 07:00:00 15.4 4 Sudeste 7 Sudeste 0 956.2 -0.1 82
2019-08-17 06:00:00 15.9 4 Noroeste 8 Sudeste 0 956 -0.6 82
2019-08-17 05:00:00 16.6 3 Sudeste 6 Sudeste 0 956.2 -0.7 78
2019-08-17 04:00:00 17.7 3 Sudeste 7 Sudeste 0 956.3 -0.6 74
2019-08-17 03:00:00 18.7 3 Sudeste 7 Sudeste 0 956.6 0 71
2019-08-17 02:00:00 20 5 Sudeste 9 Oeste 0 956.9 0.6 67
2019-08-17 01:00:00 21.4 7 Noroeste 13 Oeste 0 956.9 1.4 63
2019-08-17 00:00:00 22.5 4 Noroeste 18 Noroeste 0 956.6 1.9 59
2019-08-16 23:00:00 24.3 6 Oeste 14 Sudoeste 0 956.3 1.8 51
2019-08-16 22:00:00 25.7 8 Oeste 17 Oeste 0 955.5 0.9 44
2019-08-16 21:00:00 28.2 9 Noroeste 20 Oeste 0 954.7 0.1 40
2019-08-16 20:00:00 30.7 9 Noroeste 23 Noroeste 0 954.5 -0.3 28
2019-08-16 19:00:00 31.6 13 Noroeste 30 Noroeste 0 954.6 -0.5 20
2019-08-16 18:00:00 32.5 17 Oeste 30 Oeste 0 954.6 -1.2 17
2019-08-16 17:00:00 33 12 Oeste 26 Oeste 0 954.8 -1.6 16
2019-08-16 16:00:00 32.2 8 Oeste 21 Noroeste 0 955.1 -1.9 20
2019-08-16 15:00:00 30 8 Noroeste 19 Oeste 0 955.8 -1.9 24
2019-08-16 14:00:00 27.6 5 Oeste 14 Oeste 0 956.4 -1.8 33
2019-08-16 13:00:00 25 6 Noroeste 13 Oeste 0 957 -1.6 49
2019-08-16 12:00:00 22.8 4 Oeste 10 Noroeste 0 957.7 -0.9 55
2019-08-16 11:00:00 20.1 4 Sur 9 Oeste 0 958.2 -0.3 63
2019-08-16 10:00:00 17.1 4 Noroeste 8 Noroeste 0 958.6 0 72
2019-08-16 09:00:00 15.3 6 Oeste 8 Noroeste 0 958.6 0.4 78
2019-08-16 08:00:00 13.9 0 Calma 5 Este 0 958.5 0 84
2019-08-16 07:00:00 14.6 0 Calma 4 Norte 0 958.6 0.2 80
2019-08-16 06:00:00 15.3 2 Norte 4 Este 0 958.2 -0.2 79
2019-08-16 05:00:00 15.8 0 Calma 3 Nordeste 0 958.5 0 76
2019-08-16 04:00:00 16.7 0 Calma 5 Este 0 958.4 -0.2 74
2019-08-16 03:00:00 18.1 2 Norte 6 Sur 0 958.4 -0.1 70
2019-08-16 02:00:00 19.1 3 Sudeste 7 Sudeste 0 958.5 0 66
2019-08-16 01:00:00 20 4 Sudeste 7 Sudeste 0 958.6 0.5 64
2019-08-16 00:00:00 21.7 3 Sudoeste 8 Sudeste 0 958.5 1.3 57
2019-08-15 23:00:00 23.2 6 Sudoeste 16 Oeste 0 958.5 1.5 53
2019-08-15 22:00:00 24.8 8 Sudoeste 15 Sudoeste 0 958.1 1.2 49
2019-08-15 21:00:00 27 8 Oeste 22 Noroeste 0 957.2 0.3 43
2019-08-15 20:00:00 29.1 13 Noroeste 28 Oeste 0 957 -0.3 37
2019-08-15 19:00:00 30.1 13 Noroeste 26 Noroeste 0 956.9 -0.9 34
2019-08-15 18:00:00 30.6 10 Noroeste 26 Noroeste 0 956.9 -1.1 33
2019-08-15 17:00:00 31.2 9 Oeste 27 Noroeste 0 957.3 -1.4 33
2019-08-15 16:00:00 30.3 11 Oeste 26 Noroeste 0 957.8 -1.7 35
2019-08-15 15:00:00 29.2 6 Oeste 20 Oeste 0 958 -1.9 36
2019-08-15 14:00:00 27.6 7 Sudoeste 18 Oeste 0 958.7 -1.7 36
2019-08-15 13:00:00 25.3 5 Oeste 12 Oeste 0 959.5 -1.1 35
2019-08-15 12:00:00 22.4 4 Sudoeste 10 Noroeste 0 959.9 -1 56
2019-08-15 11:00:00 20.2 4 Oeste 10 Noroeste 0 960.4 -0.3 68
2019-08-15 10:00:00 17.8 2 Norte 7 Oeste 0 960.6 0.4 72
2019-08-15 09:00:00 15.8 3 Oeste 5 Sudoeste 0 960.9 0.7 81
2019-08-15 08:00:00 14.4 3 Oeste 6 Sur 0 960.7 0.6 86
2019-08-15 07:00:00 14.7 3 Sudeste 5 Sur 0 960.2 0 87
2019-08-15 06:00:00 15.4 0 Calma 7 Sudeste 0 960.2 0.2 85
2019-08-15 05:00:00 15.7 4 Sudeste 6 Sudeste 0 960.1 0.2 84
2019-08-15 04:00:00 16.4 2 Sudeste 4 Sudeste 0 960.2 0.3 83
2019-08-15 03:00:00 17.1 3 Sudeste 6 Sudeste 0 960 0 81
2019-08-15 02:00:00 18 0 Calma 5 Nordeste 0 959.9 0.2 77
2019-08-15 01:00:00 20.1 3 Nordeste 14 Noroeste 0 959.9 1 70
2019-08-15 00:00:00 21.2 4 Sudoeste 17 Oeste 0 960 1.6 69
2019-08-14 23:00:00 22.1 6 Oeste 15 Oeste 0 959.7 1.8 66
2019-08-14 22:00:00 23.5 10 Oeste 26 Oeste 0 958.9 1 60
2019-08-14 21:00:00 25.2 15 Oeste 30 Oeste 0 958.4 0.7 52
2019-08-14 20:00:00 27.1 17 Oeste 31 Oeste 0 957.9 0.2 46
2019-08-14 19:00:00 28.1 15 Noroeste 34 Oeste 0 957.9 -0.1 44
2019-08-14 18:00:00 29.3 16 Noroeste 28 Noroeste 0 957.7 -0.8 43
2019-08-14 17:00:00 29.4 12 Noroeste 25 Oeste 0 957.7 -1.3 42
2019-08-14 16:00:00 29.8 8 Oeste 23 Oeste 0 958 -1.6 37
2019-08-14 15:00:00 28 8 Oeste 21 Oeste 0 958.5 -1.6 38
2019-08-14 14:00:00 26.9 8 Sudoeste 15 Oeste 0 959 -1 39
2019-08-14 13:00:00 23.8 8 Oeste 13 Oeste 0 959.6 -0.8 42
2019-08-14 12:00:00 21.6 4 Sudoeste 13 Oeste 0 960.1 -0.5 49
2019-08-14 11:00:00 18.8 6 Noroeste 13 Noroeste 0 960 -0.2 57
2019-08-14 10:00:00 16.8 2 Sudeste 7 Sudoeste 0 960.4 0.4 60
2019-08-14 09:00:00 14.1 4 Sudeste 10 Sudeste 0 960.6 1.1 68
2019-08-14 08:00:00 12.1 4 Noroeste 15 Sur 0 960.2 0.3 78
2019-08-14 07:00:00 12.8 6 Sudeste 11 Sudeste 0 960 0.3 73
2019-08-14 06:00:00 13.3 3 Noroeste 8 Sur 0 959.5 -0.1 71
2019-08-14 05:00:00 13.7 2 Sudeste 7 Noroeste 0 959.9 0.5 69
2019-08-14 04:00:00 14.8 3 Noroeste 12 Sur 0 959.7 0 66
2019-08-14 03:00:00 15.5 6 Sur 10 Sur 0 959.6 0.3 63
2019-08-14 02:00:00 16.4 4 Sudeste 10 Sudeste 0 959.4 0.4 58
2019-08-14 01:00:00 17.2 3 Sur 5 Este 0 959.7 1.3 56
2019-08-14 00:00:00 18.3 4 Sudeste 8 Oeste 0 959.3 1.4 50
2019-08-13 23:00:00 19.5 0 Calma 7 Oeste 0 959 1.7 45
2019-08-13 22:00:00 22.5 5 Oeste 18 Noroeste 0 958.4 1.3 35
2019-08-13 21:00:00 24.7 10 Noroeste 26 Noroeste 0 957.9 0.6 29
2019-08-13 20:00:00 27.5 9 Noroeste 22 Noroeste 0 957.3 -0.4 27
2019-08-13 19:00:00 28 6 Noroeste 21 Oeste 0 957.1 -1.3 24
2019-08-13 18:00:00 27.8 9 Noroeste 23 Noroeste 0 957.3 -1.7 24
2019-08-13 17:00:00 27.5 10 Noroeste 19 Oeste 0 957.7 -1.9 21
2019-08-13 16:00:00 26.4 8 Oeste 25 Oeste 0 958.4 -1.8 19
2019-08-13 15:00:00 24.6 6 Oeste 19 Oeste 0 959 -1.7 29
2019-08-13 14:00:00 22.9 5 Oeste 15 Oeste 0 959.6 -1.3 38
2019-08-13 13:00:00 20.9 3 Norte 14 Oeste 0 960.2 -1.2 45
2019-08-13 12:00:00 18.4 5 Sudoeste 11 Oeste 0 960.7 -0.7 55
2019-08-13 11:00:00 15.7 3 Noroeste 10 Oeste 0 960.9 -0.3 63
2019-08-13 10:00:00 13.5 3 Sur 7 Sudoeste 0 961.4 0.5 70
2019-08-13 09:00:00 11.2 3 Oeste 5 Noroeste 0 961.4 1.1 79
2019-08-13 08:00:00 9.3 0 Calma 5 Sudeste 0 961.2 0.7 86
2019-08-13 07:00:00 9.5 2 Este 3 Este 0 960.9 0.3 85
2019-08-13 06:00:00 10.1 0 Calma 4 Sudeste 0 960.3 -0.6 83
2019-08-13 05:00:00 10.8 2 Nordeste 4 Este 0 960.5 -0.6 79
2019-08-13 04:00:00 11.8 2 Este 8 Sur 0 960.6 -0.4 74
2019-08-13 03:00:00 12.9 3 Sudeste 5 Este 0 960.9 -0.3 73
2019-08-13 02:00:00 14.4 5 Sudeste 10 Sur 0 961.1 0.1 67
2019-08-13 01:00:00 15.9 4 Oeste 10 Oeste 0 961 0.7 64
2019-08-13 00:00:00 16.8 5 Sudoeste 14 Sudoeste 0 961.2 1.6 61
2019-08-12 23:00:00 17.7 4 Sudoeste 11 Oeste 0 961 1.9 57
2019-08-12 22:00:00 18.9 8 Oeste 14 Oeste 0 960.3 1.2 51
2019-08-12 21:00:00 20 7 Oeste 17 Noroeste 0 959.6 0.2 44
2019-08-12 20:00:00 21.5 9 Oeste 17 Oeste 0 959.1 -0.7 37
2019-08-12 19:00:00 21.9 6 Oeste 19 Oeste 0 959.1 -0.9 35
2019-08-12 18:00:00 20.7 12 Oeste 22 Noroeste 0 959.4 -1.2 39
2019-08-12 17:00:00 21.6 9 Oeste 18 Noroeste 0 959.8 -1.5 35
2019-08-12 16:00:00 22.3 6 Oeste 23 Noroeste 0 960 -1.8 33
2019-08-12 15:00:00 21.5 10 Oeste 23 Oeste 0 960.6 -1.5 34
2019-08-12 14:00:00 20.4 9 Oeste 19 Noroeste 0 961.3 -0.8 37
2019-08-12 13:00:00 19.3 5 Norte 16 Oeste 0 961.8 -0.1 41
2019-08-12 12:00:00 18.1 7 Oeste 13 Oeste 0 962.1 0.7 46
2019-08-12 11:00:00 16.2 6 Oeste 14 Noroeste 0 962.1 1 56
2019-08-12 10:00:00 13.8 3 Noroeste 8 Oeste 0 961.9 1.2 69
2019-08-12 09:00:00 11.9 2 Noroeste 5 Noroeste 0 961.4 1.1 78
2019-08-12 08:00:00 9.6 2 Noroeste 5 Noroeste 0 961.1 1 85
2019-08-12 07:00:00 9.4 2 Nordeste 5 Sudeste 0 960.7 0.4 85
2019-08-12 06:00:00 10.1 0 Calma 5 Norte 0 960.3 -0.2 81
2019-08-12 05:00:00 10.7 2 Nordeste 8 Noroeste 0 960.1 -0.6 80
2019-08-12 04:00:00 11.5 3 Noroeste 9 Noroeste 0 960.3 -0.4 77
2019-08-12 03:00:00 11.5 2 Nordeste 6 Este 0 960.5 0 77
2019-08-12 02:00:00 13 0 Calma 14 Noroeste 0 960.7 0.6 71
2019-08-12 01:00:00 13.8 7 Oeste 16 Oeste 0 960.7 1.3 68
2019-08-12 00:00:00 14.3 4 Oeste 15 Oeste 0 960.5 1.7 64
2019-08-11 23:00:00 15.3 6 Oeste 20 Oeste 0 960.1 1.8 62
2019-08-11 22:00:00 16.6 11 Oeste 25 Oeste 0 959.4 1.3 56
2019-08-11 21:00:00 17.9 14 Noroeste 29 Noroeste 0 958.8 0.9 48
2019-08-11 20:00:00 18.4 9 Oeste 27 Noroeste 0 958.3 0.8 50
2019-08-11 19:00:00 19.8 14 Oeste 30 Noroeste 0 958.1 1.2 47
2019-08-11 18:00:00 18.1 11 Noroeste 41 Oeste 0 957.9 0.8 56
2019-08-11 17:00:00 20.1 14 Noroeste 40 Noroeste 0 957.5 0.1 45
2019-08-11 16:00:00 22.8 13 Oeste 28 Noroeste 0 956.9 -1 32
2019-08-11 15:00:00 22.7 13 Oeste 29 Noroeste 0 957.1 -0.7 30
2019-08-11 14:00:00 21.3 15 Oeste 26 Oeste 0 957.4 -0.2 35
2019-08-11 13:00:00 20.1 9 Oeste 21 Oeste 0 957.9 0.5 46
2019-08-11 12:00:00 19.3 8 Oeste 18 Sudoeste 0 957.8 0.7 51
2019-08-11 11:00:00 17.2 10 Oeste 21 Noroeste 0 957.6 1 61
2019-08-11 10:00:00 16.2 8 Oeste 18 Oeste 0 957.4 1.1 68
2019-08-11 09:00:00 14.9 7 Oeste 15 Noroeste 0 957.1 0.9 75
2019-08-11 08:00:00 15.1 5 Oeste 10 Noroeste 0 956.6 0.1 75
2019-08-11 07:00:00 15.3 4 Oeste 10 Oeste 0 956.3 -0.4 77
2019-08-11 06:00:00 15.4 3 Oeste 8 Oeste 0 956.2 -0.9 76
2019-08-11 05:00:00 15.8 3 Sudoeste 10 Sudoeste 0 956.5 -1 73
2019-08-11 04:00:00 16.4 5 Oeste 11 Sudoeste 0 956.7 -0.7 71
2019-08-11 03:00:00 17 5 Oeste 12 Oeste 0 957.1 -0.4 67
2019-08-11 02:00:00 17.5 6 Oeste 15 Noroeste 0 957.5 -0.1 67
2019-08-11 01:00:00 18.1 7 Oeste 17 Noroeste 0 957.4 0.1 65
2019-08-11 00:00:00 18.7 9 Sudoeste 18 Oeste 0 957.5 0.3 61
2019-08-10 23:00:00 19.3 5 Sudoeste 17 Oeste 0 957.6 0.6 56
2019-08-10 22:00:00 20.4 6 Oeste 13 Noroeste 0 957.3 0.5 51
2019-08-10 21:00:00 21.3 9 Oeste 18 Oeste 0 957.2 0.6 45
2019-08-10 20:00:00 22.2 12 Noroeste 27 Noroeste 0 957 0.3 44
2019-08-10 19:00:00 23.9 13 Noroeste 26 Noroeste 0 956.8 -0.5 38
2019-08-10 18:00:00 24.8 13 Oeste 23 Noroeste 0 956.6 -1.2 33
2019-08-10 17:00:00 25.2 11 Oeste 23 Noroeste 0 956.7 -2 33
2019-08-10 16:00:00 24.6 9 Noroeste 25 Oeste 0 957.3 -1.7 36
2019-08-10 15:00:00 23.4 12 Noroeste 24 Oeste 0 957.8 -1.8 38
2019-08-10 14:00:00 22.3 11 Oeste 19 Oeste 0 958.7 -1 38
2019-08-10 13:00:00 21.2 9 Noroeste 17 Noroeste 0 959 -0.7 43
2019-08-10 12:00:00 19.9 6 Oeste 18 Oeste 0 959.6 0.2 47
2019-08-10 11:00:00 18.8 6 Sudoeste 17 Sudoeste 0 959.7 0.5 57
2019-08-10 10:00:00 16.8 4 Oeste 10 Oeste 0 959.7 1.2 68
2019-08-10 09:00:00 14.8 4 Sudeste 8 Sudeste 0 959.4 1.2 78
2019-08-10 08:00:00 12.9 0 Calma 4 Oeste 0 959.2 1.3 86
2019-08-10 07:00:00 13.3 0 Calma 4 Este 0 958.5 0.7 84
2019-08-10 06:00:00 15.2 0 Calma 4 Norte 0 958.2 0.4 78
2019-08-10 05:00:00 16.1 0 Calma 5 Noroeste 0 957.9 0.4 73
2019-08-10 04:00:00 16.6 2 Norte 9 Noroeste 0 957.8 0.4 73
2019-08-10 03:00:00 16.9 5 Noroeste 12 Oeste 0 957.8 0.5 73
2019-08-10 02:00:00 17.5 4 Oeste 12 Oeste 0 957.5 0.4 69
2019-08-10 01:00:00 18 5 Oeste 9 Sudoeste 0 957.4 0.9 65
2019-08-10 00:00:00 18.4 3 Norte 9 Oeste 0 957.3 1.6 64
2019-08-09 23:00:00 18.9 3 Oeste 13 Sudoeste 0 957.1 2.1 60
2019-08-09 22:00:00 19.4 4 Oeste 23 Noroeste 0 956.5 2.1 56
2019-08-09 21:00:00 20.2 11 Oeste 30 Oeste 0 955.7 1.6 51
2019-08-09 20:00:00 21.6 17 Oeste 34 Oeste 0 955 1.2 44
2019-08-09 19:00:00 21.9 10 Oeste 28 Oeste 0 954.4 0.6 44
2019-08-09 18:00:00 22.6 14 Oeste 39 Oeste 0 954.1 0.2 45
2019-08-09 17:00:00 22.9 10 Oeste 27 Sudoeste 0 953.8 0.4 46
2019-08-09 16:00:00 23.3 13 Sudoeste 27 Oeste 0 953.8 0.5 44
2019-08-09 15:00:00 23.1 15 Oeste 31 Oeste 0 953.9 1 43
2019-08-09 14:00:00 23 12 Oeste 29 Sudoeste 0 953.4 0.9 46
2019-08-09 13:00:00 21.8 10 Oeste 24 Oeste 0 953.3 1.2 50
2019-08-09 12:00:00 21.2 10 Sudoeste 38 Oeste 0 952.9 1.4 50
2019-08-09 11:00:00 21.1 13 Oeste 30 Oeste 0 952.5 1.7 53
2019-08-09 10:00:00 19.6 14 Oeste 28 Noroeste 0 952.1 2.2 62
2019-08-09 09:00:00 18.2 7 Noroeste 17 Noroeste 0 951.5 2.4 74
2019-08-09 08:00:00 17.8 7 Oeste 25 Oeste 0 950.8 2 76
2019-08-09 07:00:00 19.1 10 Oeste 25 Oeste 0.4 949.9 1.3 83
2019-08-09 06:00:00 20.9 7 Oeste 15 Sur 0 949.1 0.6 82
2019-08-09 05:00:00 20.8 3 Sudeste 8 Sudoeste 0 948.8 -0.1 86
2019-08-09 04:00:00 21.1 4 Sudoeste 11 Nordeste 0.2 948.6 -0.5 85
2019-08-09 03:00:00 21.9 5 Este 12 Sur 0.2 948.5 -1.1 80
2019-08-09 02:00:00 23 5 Este 13 Sudoeste 0 948.9 -0.6 69
2019-08-09 01:00:00 23.4 6 Oeste 31 Sudoeste 0 949.1 0.1 66
2019-08-09 00:00:00 24 12 Oeste 34 Sudoeste 0 949.6 0.7 62
2019-08-08 23:00:00 24.3 7 Sudoeste 22 Noroeste 0 949.5 0.4 61
2019-08-08 22:00:00 24.3 3 Sudoeste 17 Sudoeste 0 949 -0.1 59
2019-08-08 21:00:00 25.2 10 Oeste 30 Oeste 0 948.9 -0.2 55
2019-08-08 20:00:00 25.7 9 Oeste 29 Oeste 0 949.1 -0.3 58
2019-08-08 19:00:00 25.1 6 Sudoeste 19 Este 0 949.1 -0.7 72
2019-08-08 18:00:00 25.2 7 Sudeste 13 Este 0 949.1 -1.3 77
2019-08-08 17:00:00 25.1 3 Sudoeste 8 Nordeste 0 949.4 -1.3 74
2019-08-08 16:00:00 23.4 4 Este 10 Sudoeste 3.8 949.8 -1 85
2019-08-08 15:00:00 23.6 3 Norte 13 Oeste 0.6 950.4 -0.8 81
2019-08-08 14:00:00 23.8 4 Noroeste 13 Oeste 0.6 950.7 -0.9 75
2019-08-08 13:00:00 25.2 5 Sudoeste 12 Sudoeste 0 950.8 -0.7 64
2019-08-08 12:00:00 22.6 3 Oeste 7 Sudoeste 0 951.2 0 79
2019-08-08 11:00:00 20 2 Oeste 6 Oeste 0 951.6 -- 89
2019-08-08 10:00:00 19.3 4 Oeste 7 Noroeste 0 951.5 0.5 91
2019-08-08 09:00:00 18.6 0 Calma -- -- -- 951.2 0.3 93
2019-08-08 08:00:00 -- -- -- -- -- -- -- -- --
2019-08-08 07:00:00 18.4 2 Noroeste 8 Noroeste 0 951 -0.6 93
2019-08-08 06:00:00 18.3 0 Calma 10 Sudeste 0 950.9 -1.1 93
2019-08-08 05:00:00 18.2 2 Este -- -- -- 951.5 -0.8 94
2019-08-08 04:00:00 18.6 4 Noroeste 7 Oeste 0 951.6 -- 93
2019-08-08 03:00:00 18.7 5 Sudeste -- -- -- 952 -0.3 92
2019-08-08 02:00:00 18.7 4 Sudeste -- -- -- 952.3 0 94
2019-08-08 01:00:00 -- -- -- -- -- -- -- -- --
2019-08-08 00:00:00 18.8 3 Norte -- -- -- 952.3 0.3 92
2019-08-07 23:00:00 18.7 3 Sudeste -- -- -- 952.3 0.3 91
2019-08-07 22:00:00 19.6 3 Sudoeste 10 Noroeste 0 952.1 -0.4 86
2019-08-07 21:00:00 19.9 4 Este 6 Este 0 952 -0.3 88
2019-08-07 20:00:00 19.9 4 Este 8 Nordeste 0.2 952 -0.4 84
2019-08-07 19:00:00 19.9 0 Calma 6 Este 0.2 952.5 -0.1 82
2019-08-07 18:00:00 19.3 4 Este 11 Nordeste 1.6 952.3 0.3 87
2019-08-07 17:00:00 19.7 7 Nordeste -- -- -- 952.4 0.2 86
2019-08-07 16:00:00 22.5 5 Noroeste 23 Sudoeste 0 952.6 0.2 66
2019-08-07 15:00:00 24.1 5 Oeste 14 Oeste 0 952 -- 50
2019-08-07 14:00:00 23.7 7 Noroeste 13 Noroeste 0 952.2 -0.3 52
2019-08-07 13:00:00 21.9 5 Noroeste -- -- -- 952.4 -0.1 61
2019-08-07 12:00:00 -- -- -- -- -- -- -- -- --
2019-08-07 11:00:00 19.6 5 Oeste 9 Oeste 0 952.5 0.6 67
2019-08-07 10:00:00 17.9 3 Noroeste 8 Oeste 0 952.5 0.6 71
2019-08-07 09:00:00 16.8 3 Sudoeste 6 Sudoeste 0 952.2 0.7 77
2019-08-07 08:00:00 15 0 Calma 4 Noroeste 0 951.9 0.4 84
2019-08-07 07:00:00 15.4 3 Este 4 Oeste 0 951.9 0.4 83
2019-08-07 06:00:00 16.5 3 Este 4 Este 0 951.5 -0.2 79
2019-08-07 05:00:00 17.1 2 Sudeste 5 Oeste 0 951.5 -0.4 78
2019-08-07 04:00:00 17.5 3 Este 7 Sudeste 0 951.5 -0.6 77
2019-08-07 03:00:00 18.2 3 Sudeste 4 Este 0 951.7 -0.4 75
2019-08-07 02:00:00 19.3 2 Este 5 Sudeste 0 951.9 -0.6 70
2019-08-07 01:00:00 20 4 Sudeste 5 Sudeste 0 952.1 -0.4 67
2019-08-07 00:00:00 20.4 4 Este 10 Este 0 952.1 -0.4 64
2019-08-06 23:00:00 21 2 Sudeste 12 Sudoeste 0 952.5 0.5 63
2019-08-06 22:00:00 21.3 6 Sudoeste 14 Oeste 0 952.5 0.1 62
2019-08-06 21:00:00 21.7 6 Oeste 19 Sudoeste 0 952.5 0.2 61
2019-08-06 20:00:00 22.2 13 Oeste 31 Oeste 0 952 0.7 61
2019-08-06 19:00:00 23.5 14 Oeste 33 Norte 0 952.4 0.8 56
2019-08-06 18:00:00 24.7 15 Noroeste 37 Noroeste 0 952.3 0.2 53
2019-08-06 17:00:00 27.8 13 Oeste 27 Sudoeste 0 951.3 -1.3 47
2019-08-06 16:00:00 27.7 10 Sudoeste 19 Oeste 0 951.6 -1.4 40
2019-08-06 15:00:00 26.7 6 Sudoeste 16 Sudoeste 0 952.1 -1.3 47
2019-08-06 14:00:00 25.8 7 Oeste 14 Noroeste 0 952.6 -1.3 50
2019-08-06 13:00:00 23.9 6 Noroeste 14 Oeste 0 953 -0.7 59
2019-08-06 12:00:00 22.9 4 Oeste 12 Noroeste 0 953.4 -0.4 63
2019-08-06 11:00:00 20.8 8 Oeste 13 Noroeste 0 953.9 0.6 69
2019-08-06 10:00:00 19.6 3 Sudoeste 8 Sudoeste 0 953.7 0.6 73
2019-08-06 09:00:00 17.7 3 Noroeste 6 Norte 0 953.8 0.6 81
2019-08-06 08:00:00 16.6 0 Calma 6 Sur 0 953.3 -0.4 84
2019-08-06 07:00:00 17.1 3 Sudeste 8 Sur 0 953.1 -0.7 83
2019-08-06 06:00:00 17.6 3 Noroeste 11 Sudeste 0 953.2 -0.6 82
2019-08-06 05:00:00 18.2 5 Sudeste 10 Sur 0 953.7 -0.1 78
2019-08-06 04:00:00 19.1 3 Sudeste 5 Sudeste 0 953.8 -0.2 76
2019-08-06 03:00:00 20.2 0 Calma 7 Sudoeste 0 953.8 0.1 72
2019-08-06 02:00:00 21.4 4 Sudoeste 12 Oeste 0 953.8 0.2 68
2019-08-06 01:00:00 22.2 5 Oeste 12 Oeste 0 954 1.3 66
2019-08-06 00:00:00 23.2 7 Oeste 16 Oeste 0 953.7 1.6 61
2019-08-05 23:00:00 24.6 8 Oeste 17 Oeste 0 953.6 1.8 55
2019-08-05 22:00:00 26 10 Oeste 21 Norte 0 952.7 1.2 48
2019-08-05 21:00:00 28 13 Noroeste 26 Noroeste 0 952.1 0.3 42
2019-08-05 20:00:00 30 15 Noroeste 29 Noroeste 0 951.8 -0.4 36
2019-08-05 19:00:00 31.3 13 Noroeste 27 Noroeste 0 951.5 -1.3 29
2019-08-05 18:00:00 31.7 9 Noroeste 25 Noroeste 0 951.8 -1.6 30
2019-08-05 17:00:00 31.3 8 Noroeste 21 Oeste 0 952.2 -1.8 34
2019-08-05 16:00:00 30.4 9 Oeste 24 Oeste 0 952.8 -2 31
2019-08-05 15:00:00 28.6 7 Noroeste 19 Oeste 0 953.4 -2 35
2019-08-05 14:00:00 26.5 7 Oeste 17 Oeste 0 954 -2 42
2019-08-05 13:00:00 24.1 5 Oeste 13 Oeste 0 954.8 -1.4 55
2019-08-05 12:00:00 21.7 5 Oeste 12 Oeste 0 955.4 -0.9 64
2019-08-05 11:00:00 19.2 4 Noroeste 8 Noroeste 0 956 -0.2 73
2019-08-05 10:00:00 17 2 Sudoeste 6 Noroeste 0 956.2 0.5 76
2019-08-05 09:00:00 16 2 Este 6 Sudoeste 0 956.3 0.7 80
2019-08-05 08:00:00 15 3 Sudeste 6 Sur 0 956.2 0.4 85
2019-08-05 07:00:00 15.3 0 Calma 6 Sudeste 0 955.7 0 83
2019-08-05 06:00:00 15.8 4 Sudeste 9 Sur 0 955.6 0 83
2019-08-05 05:00:00 16.8 5 Sur 9 Sur 0 955.8 0.4 78
2019-08-05 04:00:00 17.8 0 Calma 6 Sudeste 0 955.7 0.3 77
2019-08-05 03:00:00 19.3 4 Sudeste 7 Sudoeste 0 955.6 0.4 71
2019-08-05 02:00:00 20.3 3 Sudoeste 8 Oeste 0 955.4 0.2 70
2019-08-05 01:00:00 21 3 Sudoeste 10 Sudoeste 0 955.4 1.1 67
2019-08-05 00:00:00 22.1 6 Sudoeste 14 Oeste 0 955.2 1.6 63
2019-08-04 23:00:00 23.5 7 Oeste 14 Sudoeste 0 955.2 2 57
2019-08-04 22:00:00 25.2 5 Oeste 20 Noroeste 0 954.3 1.8 45
2019-08-04 21:00:00 27.2 10 Noroeste 33 Noroeste 0 953.6 1.3 39
2019-08-04 20:00:00 29 12 Noroeste 30 Noroeste 0 953.2 0.7 35
2019-08-04 19:00:00 30.2 14 Noroeste 37 Oeste 0 952.5 -0.4 34
2019-08-04 18:00:00 31.7 12 Oeste 32 Oeste 0 952.3 -1.1 29
2019-08-04 17:00:00 31.1 10 Noroeste 30 Noroeste 0 952.5 -1.4 29
2019-08-04 16:00:00 30.1 9 Oeste 21 Noroeste 0 952.9 -1.7 39
2019-08-04 15:00:00 28.4 7 Oeste 19 Oeste 0 953.4 -1.6 43
2019-08-04 14:00:00 26 8 Oeste 17 Noroeste 0 953.9 -1.2 52
2019-08-04 13:00:00 23.9 5 Oeste 12 Sudoeste 0 954.6 -0.7 61
2019-08-04 12:00:00 21.5 3 Sudoeste 8 Oeste 0 955 -0.2 68
2019-08-04 11:00:00 19.9 3 Oeste 9 Noroeste 0 955.1 0.2 75
2019-08-04 10:00:00 18.7 3 Oeste 6 Noroeste 0 955.3 0.8 79
2019-08-04 09:00:00 17.7 2 Noroeste 6 Noroeste 0 955.2 0.7 83
2019-08-04 08:00:00 16.8 4 Sudeste 8 Sur 0 954.9 0.5 84
2019-08-04 07:00:00 17.1 4 Sudeste 7 Sudeste 0 954.5 0.2 83
2019-08-04 06:00:00 17.6 3 Sudeste 4 Este 0 954.5 0.3 81
2019-08-04 05:00:00 18.3 3 Sudeste 9 Sur 0 954.4 0.1 78
2019-08-04 04:00:00 19.2 4 Sudeste 6 Sudeste 0 954.3 0.1 76
2019-08-04 03:00:00 20.4 3 Sudoeste 7 Oeste 0 954.2 0.1 73
2019-08-04 02:00:00 21.3 3 Sudoeste 10 Sudoeste 0 954.3 0.8 70
2019-08-04 01:00:00 22 7 Sudoeste 19 Sudoeste 0 954.2 1.4 69
2019-08-04 00:00:00 23.1 6 Sudoeste 21 Sudoeste 0 954.1 1.8 66
2019-08-03 23:00:00 24.7 8 Oeste 16 Oeste 0 953.5 1.5 58
2019-08-03 22:00:00 26.6 5 Oeste 18 Oeste 0 952.8 1 47
2019-08-03 21:00:00 28.7 10 Oeste 24 Noroeste 0 952.3 0.7 36
2019-08-03 20:00:00 30.1 13 Noroeste 31 Noroeste 0 952 0.4 28
2019-08-03 19:00:00 31.5 16 Noroeste 30 Noroeste 0 951.8 -0.2 26
2019-08-03 18:00:00 32.5 13 Noroeste 29 Noroeste 0 951.6 -1 28
2019-08-03 17:00:00 33.5 13 Oeste 30 Oeste 0 951.6 -1.8 23
2019-08-03 16:00:00 32.7 10 Oeste 21 Oeste 0 952 -1.9 23
2019-08-03 15:00:00 31.1 5 Noroeste 16 Oeste 0 952.6 -1.7 33
2019-08-03 14:00:00 29.3 6 Oeste 14 Noroeste 0 953.4 -1.2 36
2019-08-03 13:00:00 27.1 5 Noroeste 13 Noroeste 0 953.9 -1 44
2019-08-03 12:00:00 24.6 6 Oeste 12 Oeste 0 954.3 -0.8 52
2019-08-03 11:00:00 21.9 5 Sudoeste 11 Oeste 0 954.6 -0.1 60
2019-08-03 10:00:00 20 4 Sur 9 Sur 0 954.9 0.2 65
2019-08-03 09:00:00 17.5 4 Oeste 6 Oeste 0 955.1 0.5 73
2019-08-03 08:00:00 16 2 Sudeste 7 Sudeste 0 954.7 0 78
2019-08-03 07:00:00 16.3 3 Este 5 Noroeste 0 954.7 0.1 77
2019-08-03 06:00:00 17 2 Este 5 Sur 0 954.6 0 74
2019-08-03 05:00:00 18.4 3 Sur 7 Sur 0 954.7 0 69
2019-08-03 04:00:00 19.3 5 Sur 8 Sur 0 954.6 -0.4 64
2019-08-03 03:00:00 20 4 Sur 9 Sudeste 0 954.6 -0.3 63
2019-08-03 02:00:00 21.5 4 Sudeste 11 Sur 0 954.7 0.1 59
2019-08-03 01:00:00 23.2 4 Sudoeste 10 Oeste 0 955 1.2 55
2019-08-03 00:00:00 24.2 5 Oeste 17 Sudoeste 0 954.9 1.6 53
2019-08-02 23:00:00 25.4 5 Oeste 15 Sudoeste 0 954.6 1.8 47
2019-08-02 22:00:00 27 8 Oeste 21 Noroeste 0 953.8 1 41
2019-08-02 21:00:00 29.5 11 Oeste 21 Noroeste 0 953.3 0.2 37
2019-08-02 20:00:00 31.4 13 Oeste 24 Noroeste 0 952.8 -0.7 33
2019-08-02 19:00:00 32.6 13 Noroeste 23 Oeste 0 952.8 -1.4 30
2019-08-02 18:00:00 32.7 9 Oeste 21 Oeste 0 953.1 -1.5 26
2019-08-02 17:00:00 31.8 7 Oeste 18 Noroeste 0 953.5 -1.7 29
2019-08-02 16:00:00 31.1 5 Noroeste 18 Noroeste 0 954.2 -1.5 29
2019-08-02 15:00:00 29.8 8 Oeste 19 Oeste 0 954.6 -1.6 31
2019-08-02 14:00:00 27.7 6 Oeste 14 Noroeste 0 955.2 -1.4 38
2019-08-02 13:00:00 25.2 6 Oeste 14 Oeste 0 955.7 -1.1 50
2019-08-02 12:00:00 23 5 Oeste 10 Oeste 0 956.2 -0.4 57
2019-08-02 11:00:00 19.8 4 Sudoeste 10 Oeste 0 956.6 0.2 67
2019-08-02 10:00:00 17.5 3 Sudoeste 9 Noroeste 0 956.8 0.8 71
2019-08-02 09:00:00 15.5 2 Oeste 7 Oeste 0 956.6 1 80
2019-08-02 08:00:00 14.4 0 Calma 5 Sudeste 0 956.4 0.8 86
2019-08-02 07:00:00 14.8 3 Noroeste 4 Oeste 0 956 0.5 85
2019-08-02 06:00:00 15.4 0 Calma 5 Este 0 955.6 0.3 84
2019-08-02 05:00:00 16.4 3 Norte 7 Sur 0 955.6 0.3 81
2019-08-02 04:00:00 17.1 3 Sudeste 7 Sudoeste 0 955.5 0.5 79
2019-08-02 03:00:00 17.8 2 Este 5 Sudoeste 0 955.3 0.5 77
2019-08-02 02:00:00 19 2 Sudeste 5 Este 0 955.3 1 74
2019-08-02 01:00:00 20.7 4 Sur 9 Sudoeste 0 955 1.7 69
2019-08-02 00:00:00 21.7 4 Sudoeste 11 Sudoeste 0 954.8 2.3 65
2019-08-01 23:00:00 23 4 Oeste 18 Sudoeste 0 954.3 2.4 61
2019-08-01 22:00:00 24.7 6 Oeste 23 Oeste 0 953.3 1.8 56
2019-08-01 21:00:00 27.5 12 Oeste 27 Oeste 0 952.5 1.1 41
2019-08-01 20:00:00 29.4 12 Noroeste 24 Oeste 0 951.9 0.5 30
2019-08-01 19:00:00 30 10 Noroeste 25 Noroeste 0 951.5 0 30
2019-08-01 18:00:00 30.5 10 Noroeste 25 Noroeste 0 951.4 -0.4 28
2019-08-01 17:00:00 30.6 9 Oeste 27 Oeste 0 951.4 -0.9 30
2019-08-01 16:00:00 30.4 10 Noroeste 22 Oeste 0 951.5 -1.3 24
2019-08-01 15:00:00 28.9 9 Oeste 20 Norte 0 951.8 -1.4 23
2019-08-01 14:00:00 27.1 8 Noroeste 18 Oeste 0 952.3 -1.1 38
2019-08-01 13:00:00 24.5 6 Sudoeste 12 Oeste 0 952.8 -0.7 49
2019-08-01 12:00:00 21.6 5 Noroeste 15 Oeste 0 953.2 -0.3 56
2019-08-01 11:00:00 19.3 4 Oeste 11 Sudoeste 0 953.4 0.2 63
2019-08-01 10:00:00 16.9 4 Oeste 9 Sudoeste 0 953.5 0.4 69
2019-08-01 09:00:00 15.2 0 Calma 5 Este 0 953.5 0.5 75
2019-08-01 08:00:00 12.9 0 Calma 4 Sudeste 0 953.2 0.1 85
2019-08-01 07:00:00 13.1 0 Calma 4 Este 0 953.1 -0.2 82
2019-08-01 06:00:00 13.6 3 Este -- -- -- 953 -0.5 80
2019-08-01 05:00:00 14.4 2 Sudeste 5 Sudeste 0 953.1 -0.5 77
2019-08-01 04:00:00 15.6 4 Sudeste -- -- -- 953.3 -0.3 72
2019-08-01 03:00:00 17 2 Sudeste -- -- -- 953.5 0.1 66
2019-08-01 02:00:00 17.9 6 Sudeste 9 Sur 0 953.6 0.3 65
2019-08-01 01:00:00 18.7 5 Sudeste 9 Sudeste 0 953.6 0.7 64
2019-08-01 00:00:00 20.4 3 Oeste 9 Sudoeste 0 953.4 0.8 61
2019-07-31 23:00:00 21.9 2 Sudoeste 9 Sudoeste 0 953.3 1 55
2019-07-31 22:00:00 23.1 0 Calma 13 Oeste 0 952.9 0.6 50
2019-07-31 21:00:00 24.1 4 Oeste 15 Oeste 0 952.6 0 45
2019-07-31 20:00:00 26.2 5 Oeste 21 Oeste 0 952.3 -0.5 37
2019-07-31 19:00:00 26.6 11 Oeste 22 Oeste 0 952.3 -1.5 35
2019-07-31 18:00:00 28.7 9 Oeste 22 Oeste 0 952.6 -1.6 27
2019-07-31 17:00:00 27.9 8 Oeste 15 Noroeste 0 952.8 -2.1 29
2019-07-31 16:00:00 26.6 6 Oeste 15 Oeste 0 953.8 -2 31
2019-07-31 15:00:00 25.1 5 Nordeste -- -- -- 954.2 -2.4 39
2019-07-31 14:00:00 23.5 6 Noroeste 14 Oeste 0 954.9 -2.3 41
2019-07-31 13:00:00 21.6 7 Oeste 14 Sudoeste 0 955.8 -1.9 46
2019-07-31 12:00:00 19.2 5 Oeste 11 Oeste 0 956.6 -1.2 54
2019-07-31 11:00:00 17.6 3 Oeste 9 Oeste 0 957.2 -0.5 58
2019-07-31 10:00:00 15.2 2 Sudoeste 7 Oeste 0 957.7 0.2 64
2019-07-31 09:00:00 13.1 3 Oeste 5 Oeste 0 957.8 0.2 73
2019-07-31 08:00:00 10.9 0 Calma 4 Sudeste 0 957.7 -0.1 82
2019-07-31 07:00:00 11.6 3 Sudeste 6 Sur 0 957.5 -0.5 77
2019-07-31 06:00:00 12.3 3 Noroeste 6 Noroeste 0 957.6 -0.3 76
2019-07-31 05:00:00 12.6 0 Calma 6 Sudeste 0 957.8 -0.4 72
2019-07-31 04:00:00 13.1 3 Sur 6 Sudeste 0 958 -0.1 71
2019-07-31 03:00:00 14 0 Calma 10 Sudeste 0 957.9 -0.3 67
2019-07-31 02:00:00 14.9 4 Sudeste 8 Sudeste 0 958.2 0.5 65
2019-07-31 01:00:00 16.1 3 Sudoeste 9 Sudoeste 0 958.1 1.2 63
2019-07-31 00:00:00 17.1 4 Sudoeste 16 Sudoeste 0 958.2 1.8 60
2019-07-30 23:00:00 18.3 6 Sudoeste 14 Oeste 0 957.7 1.5 51
2019-07-30 22:00:00 19.8 6 Sudoeste 20 Oeste 0 956.9 0.5 46
2019-07-30 21:00:00 22 13 Oeste 24 Noroeste 0 956.4 -0.5 38
2019-07-30 20:00:00 24.2 10 Oeste 20 Oeste 0 956.2 -1.2 33
2019-07-30 19:00:00 24.6 10 Oeste 23 Oeste 0 956.4 -1.6 29
2019-07-30 18:00:00 24.5 11 Oeste 22 Oeste 0 956.9 -1.6 24
2019-07-30 17:00:00 23.6 6 Oeste 23 Oeste 0 957.4 -1.8 28
2019-07-30 16:00:00 22.4 7 Noroeste 22 Sudoeste 0 958 -1.4 34
2019-07-30 15:00:00 21.1 8 Oeste 22 Oeste 0 958.5 -1 38
2019-07-30 14:00:00 20.6 14 Oeste 25 Oeste 0 959.2 -0.3 40
2019-07-30 13:00:00 19.5 8 Oeste 18 Oeste 0 959.4 -0.3 42
2019-07-30 12:00:00 18.5 8 Oeste 15 Sudoeste 0 959.5 0.3 45
2019-07-30 11:00:00 16.8 4 Sudoeste 11 Oeste 0 959.5 -- 52
2019-07-30 10:00:00 15.4 6 Oeste -- -- -- 959.7 1 62
2019-07-30 09:00:00 13.2 2 Nordeste -- -- -- 959.2 0.8 74
2019-07-30 08:00:00 -- -- -- -- -- -- -- -- --
2019-07-30 07:00:00 11.8 3 Oeste 8 Noroeste 0 958.7 0.3 77
2019-07-30 06:00:00 11.8 3 Sudeste -- -- -- 958.4 -0.1 78
2019-07-30 05:00:00 -- -- -- -- -- -- -- -- --
2019-07-30 04:00:00 13.3 4 Oeste -- -- -- 958.4 0.8 71
2019-07-30 03:00:00 14 8 Oeste -- -- -- 958.5 1 68
2019-07-30 02:00:00 13.9 8 Oeste -- -- -- 958.1 -- 67
2019-07-30 01:00:00 14.5 6 Oeste -- -- -- 957.6 2.2 64
2019-07-30 00:00:00 15.3 9 Oeste -- -- -- 957.5 -- 63
2019-07-29 23:00:00 -- -- -- -- -- -- -- -- --
2019-07-29 22:00:00 17.5 15 Noroeste -- -- -- 955.4 -- 57
2019-07-29 21:00:00 -- -- -- -- -- -- -- -- --
2019-07-29 20:00:00 21.3 14 Noroeste -- -- -- 954 1 40
2019-07-29 19:00:00 -- -- -- -- -- -- -- -- --
2019-07-29 18:00:00 -- -- -- -- -- -- -- -- --
2019-07-29 17:00:00 23.1 15 Oeste 33 Noroeste 0 953 0 36
2019-07-29 16:00:00 24 15 Oeste -- -- -- 953 0.1 33
2019-07-29 15:00:00 23.5 15 Oeste 37 Oeste 0 952.9 0.3 33
2019-07-29 14:00:00 21.8 12 Oeste 33 Noroeste 0 953 0.8 37
2019-07-29 13:00:00 21.2 16 Oeste 37 Noroeste 0 952.9 1 39
2019-07-29 12:00:00 20.3 15 Oeste 30 Oeste 0 952.6 1.2 48
2019-07-29 11:00:00 18.9 12 Sudoeste 25 Sudoeste 0 952.2 1.2 58
2019-07-29 10:00:00 17.6 9 Oeste 20 Oeste 0 951.9 1.6 69
2019-07-29 09:00:00 16.6 6 Oeste 10 Sudoeste 0 951.4 1.3 66
2019-07-29 08:00:00 15.5 2 Sudeste -- -- -- 951 0.7 61
2019-07-29 07:00:00 15.7 3 Noroeste 10 Sur 0 950.3 -- 70
2019-07-29 06:00:00 15.5 6 Sudeste 10 Sur 0 950.1 -0.6 61
2019-07-29 05:00:00 15.3 4 Sur 9 Sur 0 950.3 -- 67
2019-07-29 04:00:00 -- -- -- -- -- -- -- -- --
2019-07-29 03:00:00 16.6 0 Calma -- -- -- 950.7 0.9 66
2019-07-29 02:00:00 -- -- -- -- -- -- -- -- --
2019-07-29 01:00:00 -- -- -- -- -- -- -- -- --
2019-07-29 00:00:00 21.1 2 Noroeste 9 Oeste 0 949.8 1.5 51
2019-07-28 23:00:00 21.3 2 Este 5 Sudeste 0 949.5 1.3 48
2019-07-28 22:00:00 24.7 0 Calma 13 Noroeste 0 948.6 0.4 38
2019-07-28 21:00:00 27.1 8 Noroeste 17 Noroeste 0 948.3 -0.3 33
2019-07-28 20:00:00 28.1 10 Noroeste 22 Noroeste 0 948.2 -1.1 29
2019-07-28 19:00:00 28.3 10 Noroeste 21 Noroeste 0 948.2 -1.6 26
2019-07-28 18:00:00 28.1 9 Noroeste 20 Noroeste 0 948.6 -1.9 28
2019-07-28 17:00:00 27.7 8 Noroeste 22 Noroeste 0 949.3 -2 27
2019-07-28 16:00:00 26 9 Noroeste 21 Noroeste 0 949.8 -2.4 31
2019-07-28 15:00:00 24.7 7 Oeste 23 Oeste 0 950.5 -2 40
2019-07-28 14:00:00 23.3 5 Noroeste 17 Oeste 0 951.3 -1.8 42
2019-07-28 13:00:00 21.2 9 Oeste 15 Oeste 0 952.2 -1.3 47
2019-07-28 12:00:00 19.2 4 Oeste 12 Oeste 0 952.5 -1 56
2019-07-28 11:00:00 16.9 5 Oeste 10 Oeste 0 953.1 -0.3 62
2019-07-28 10:00:00 14.6 3 Oeste 8 Oeste 0 953.5 0.4 70
2019-07-28 09:00:00 12.7 2 Sudeste 6 Sudeste 0 953.5 0.4 81
2019-07-28 08:00:00 10.3 0 Calma 4 Oeste 0 953.4 0.4 90
2019-07-28 07:00:00 10.2 2 Sudeste 5 Sur 0 953.1 0.1 88
2019-07-28 06:00:00 10.8 2 Este 10 Sur 0 953.1 -0.3 86
2019-07-28 05:00:00 11.6 3 Sur 6 Sur 0 953 -0.1 85
2019-07-28 04:00:00 12.4 2 Sudeste 5 Sudeste 0 953 -0.2 82
2019-07-28 03:00:00 12.9 2 Sudeste 7 Sudeste 0 953.4 0.3 82
2019-07-28 02:00:00 14 4 Sudeste 8 Sudeste 0 953.1 0.6 77
2019-07-28 01:00:00 15 3 Sur 11 Oeste 0 953.2 1.6 75
2019-07-28 00:00:00 16.3 4 Oeste 11 Oeste 0 953.1 2.2 71
2019-07-27 23:00:00 17.5 4 Oeste 9 Oeste 0 952.5 2.1 60
2019-07-26 12:00:00 20.2 6 Noroeste 19 Noroeste 0 954.3 -0.8 52
2019-07-26 11:00:00 18.9 6 Oeste 17 Noroeste 0 954.6 -0.2 60
2019-07-26 10:00:00 16.1 6 Oeste 10 Oeste 0 955.1 0.4 72
2019-07-26 09:00:00 14.1 5 Sudoeste 8 Oeste 0 955.1 0.4 79
2019-07-26 08:00:00 13.2 0 Calma 5 Nordeste 0 954.8 0.2 85
2019-07-26 07:00:00 13.8 3 Noroeste 6 Noroeste 0 954.7 0.1 83
2019-07-26 06:00:00 14.8 3 Oeste 12 Sudoeste 0 954.7 0.1 78
2019-07-26 05:00:00 15.4 6 Oeste 16 Oeste 0 954.6 -0.1 80
2019-07-26 04:00:00 16.5 8 Oeste 17 Noroeste 0 954.6 0 77
2019-07-26 03:00:00 17.4 8 Oeste 17 Oeste 0 954.6 0 77
2019-07-26 02:00:00 18.2 8 Oeste 17 Oeste 0 954.7 0.3 77
2019-07-26 01:00:00 18.7 7 Oeste 14 Oeste 0 954.6 0.8 75
2019-07-26 00:00:00 19 5 Oeste 17 Oeste 0 954.6 1.8 76
2019-07-25 23:00:00 19.4 9 Oeste 20 Oeste 0 954.4 2.1 79
2019-07-25 22:00:00 20.3 15 Oeste 23 Oeste 0 953.8 1.7 73
2019-07-25 21:00:00 21.5 6 Oeste 21 Noroeste 0 952.8 1.3 70
2019-07-25 20:00:00 23.2 7 Noroeste 23 Oeste 0 952.3 1.1 61
2019-07-25 19:00:00 24.7 12 Oeste 27 Oeste 0 952.1 1.1 56
2019-07-25 18:00:00 26.2 14 Oeste 35 Oeste 0 951.5 0.4 45
2019-07-25 17:00:00 27.4 16 Oeste 33 Oeste 0 951.2 0 38
2019-07-25 16:00:00 28 15 Oeste 36 Noroeste 0 951 -0.6 37
2019-07-25 15:00:00 29.4 22 Noroeste 36 Oeste 0 951.1 -0.5 33
2019-07-25 14:00:00 29.1 7 Noroeste 19 Noroeste 0 951.2 -0.7 36
2019-07-25 13:00:00 27.3 7 Noroeste 17 Oeste 0 951.6 -0.6 40
2019-07-25 12:00:00 25 5 Oeste 10 Oeste 0 951.6 -0.7 45
2019-07-25 11:00:00 21.4 3 Sudoeste 9 Sudoeste 0 951.9 -0.2 58
2019-07-25 10:00:00 19.1 5 Oeste 8 Noroeste 0 952.2 0.1 65
2019-07-25 09:00:00 17.8 3 Oeste 7 Noroeste 0 952.3 0.8 70
2019-07-25 08:00:00 16.3 0 Calma 4 Este 0 952.1 0.6 77
2019-07-25 07:00:00 15.9 2 Este 4 Este 0 952.1 0.5 77
2019-07-25 06:00:00 16.8 0 Calma 6 Este 0 951.5 -0.1 75
2019-07-25 05:00:00 17.4 2 Norte 5 Este 0 951.5 -0.2 70
2019-07-25 04:00:00 18.6 2 Nordeste 5 Sudeste 0 951.6 -0.4 66
2019-07-25 03:00:00 20.2 3 Este 10 Sudeste 0 951.6 -0.4 61
2019-07-25 02:00:00 21.4 5 Sur 10 Sudeste 0 951.7 -0.1 57
2019-07-25 01:00:00 22.4 3 Sudeste 5 Sudeste 0 952 0.9 56
2019-07-25 00:00:00 23.6 4 Este 5 Este 0 952 1.5 52
2019-07-24 23:00:00 25.9 0 Calma 4 Noroeste 0 951.8 1.9 47
2019-07-24 22:00:00 28.9 2 Este 17 Noroeste 0 951.1 1.2 37
2019-07-24 21:00:00 31.5 12 Oeste 26 Oeste 0 950.5 0.3 29
2019-07-24 20:00:00 34.1 10 Oeste 24 Sudoeste 0 949.9 -0.7 27
2019-07-24 19:00:00 34.6 12 Sudoeste 26 Sudoeste 0 949.9 -1 25
2019-07-24 18:00:00 34.6 14 Oeste 29 Noroeste 0 950.2 -1.3 24
2019-07-24 17:00:00 34.4 10 Oeste 25 Oeste 0 950.6 -1.4 27
2019-07-24 16:00:00 33.7 6 Noroeste 18 Oeste 0 950.9 -1.9 27
2019-07-24 15:00:00 33 4 Este 13 Oeste 0 951.5 -2 33
2019-07-24 14:00:00 31.1 4 Noroeste 10 Oeste 0 952 -2 39
2019-07-24 13:00:00 27.9 5 Sur 14 Sudoeste 0 952.8 -1.8 52
2019-07-24 12:00:00 25.2 5 Oeste 14 Oeste 0 953.5 -1.1 61
2019-07-24 11:00:00 22.9 3 Sudoeste 8 Oeste 0 954 -0.9 67
2019-07-24 10:00:00 20.6 6 Oeste 9 Noroeste 0 954.6 0.1 78
2019-07-24 09:00:00 19 3 Sudoeste 6 Sudeste 0 954.6 0.1 85
2019-07-24 08:00:00 17.5 2 Sudoeste 7 Oeste 0 954.9 0.3 90
2019-07-24 07:00:00 17.7 3 Sudeste 6 Sudeste 0 954.5 -0.4 89
2019-07-24 06:00:00 18 3 Norte 6 Sudeste 0 954.5 -0.4 90
2019-07-24 05:00:00 18.6 3 Este 7 Este 0 954.6 -0.7 87
2019-07-24 04:00:00 19.2 2 Oeste 9 Sur 0 954.9 -0.4 85
2019-07-24 03:00:00 19.6 5 Sur 12 Sudeste 0 954.9 -0.4 83
2019-07-24 02:00:00 19.4 4 Este -- -- -- 955.3 0.1 84
2019-07-24 01:00:00 19.9 0 Calma 8 Sudeste 0 955.3 -- 83
2019-07-24 00:00:00 21 6 Sur 12 Sur 0 955.3 -- 77
2019-07-23 23:00:00 21.3 5 Este 14 Sudeste 0 955.2 1.3 77
2019-07-23 22:00:00 22 6 Sur 17 Este 0 -- -- 75
2019-07-23 21:00:00 21.7 9 Sudeste 41 Sur 6.2 -- -- 75
2019-07-23 20:00:00 29.4 12 Sudeste 35 Sudeste 0 953.9 0.6 39
2019-07-23 19:00:00 33.3 13 Oeste 22 Oeste 0 952.7 -1.2 32
2019-07-23 18:00:00 32.8 6 Sudeste 12 Sudeste 0 952.8 -1.4 34
2019-07-23 17:00:00 33.4 5 Norte 17 Noroeste 0 953.3 -1.3 30
2019-07-23 16:00:00 31.6 8 Noroeste 20 Noroeste 0 953.9 -0.6 34
2019-07-23 15:00:00 30.9 7 Noroeste 14 Noroeste 0 954.2 -0.3 35
2019-07-23 14:00:00 29.2 9 Oeste 17 Oeste 0 954.6 0.1 39
2019-07-23 13:00:00 28.2 6 Oeste 14 Noroeste 0 954.5 -0.3 42
2019-07-23 12:00:00 25.9 8 Oeste 17 Sudoeste 0 954.5 -1 47
2019-07-23 11:00:00 24.8 9 Oeste 21 Sudeste 0 954.5 -1.2 52
2019-07-23 10:00:00 25.2 12 Este 27 Este 0 954.8 -0.2 47
2019-07-23 09:00:00 21 5 Sur 10 Sudeste 0 955.5 0.7 61
2019-07-23 08:00:00 19.9 4 Oeste 8 Noroeste 0 955.7 0.6 63
2019-07-23 07:00:00 20.1 2 Nordeste 9 Nordeste 0 955 -0.6 60
2019-07-23 06:00:00 20.6 3 Noroeste 6 Noroeste 0 954.8 -1.1 58
2019-07-23 05:00:00 21.4 3 Este 5 Sur 0 955.1 -0.7 55
2019-07-23 04:00:00 22.7 4 Este 8 Sudeste 0 955.6 -0.1 50
2019-07-23 03:00:00 24 0 Calma 10 Sudeste 0 955.9 -0.1 46
2019-07-23 02:00:00 25.2 3 Sudeste 25 Este 0 955.8 -0.1 44
2019-07-23 01:00:00 26.1 18 Este 45 Este 0 955.7 0.4 40
2019-07-23 00:00:00 27 26 Este 41 Este 0 956 2 38
2019-07-22 23:00:00 28.2 20 Este 44 Este 0 955.9 2.2 35
2019-07-22 22:00:00 29.7 22 Sudeste 54 Sudeste 0 955.3 1.7 34
2019-07-22 21:00:00 33.8 9 Este 20 Este 0 954 -0.2 31
2019-07-22 20:00:00 37 8 Oeste 23 Oeste 0 953.7 -0.9 19
2019-07-22 19:00:00 37.2 8 Oeste 15 Noroeste 0 953.6 -1.4 21
2019-07-22 18:00:00 37.1 8 Oeste 15 Norte 0 954.2 -1.6 23
2019-07-22 17:00:00 37.1 8 Oeste 19 Noroeste 0 954.6 -2 26
2019-07-22 16:00:00 35.9 9 Oeste 18 Noroeste 0 955 -2.5 30
2019-07-22 15:00:00 33.5 8 Oeste 16 Oeste 0 955.8 -2.4 39
2019-07-22 14:00:00 31.1 6 Noroeste 16 Noroeste 0 956.6 -2.1 44
2019-07-22 13:00:00 28.3 5 Oeste 13 Oeste 0 957.5 -1.5 50
2019-07-22 12:00:00 25.3 5 Oeste 12 Noroeste 0 958.2 -0.9 58
2019-07-22 11:00:00 22.9 6 Oeste 11 Sudoeste 0 958.7 -0.3 66
2019-07-22 10:00:00 20.7 5 Oeste 8 Oeste 0 959 0 74
2019-07-22 09:00:00 19.1 2 Oeste 6 Noroeste 0 959.1 0.3 80
2019-07-22 08:00:00 17.3 3 Norte 6 Sudeste 0 959 0.2 86
2019-07-22 07:00:00 17 2 Sudeste 6 Sur 0 959 -0.1 86
2019-07-22 06:00:00 17.7 2 Nordeste 5 Noroeste 0 958.8 -0.5 82
2019-07-22 05:00:00 18.6 0 Calma 6 Este 0 958.8 -0.8 80
2019-07-22 04:00:00 19.5 0 Calma 6 Sur 0 959.1 -0.1 77
2019-07-22 03:00:00 20.6 5 Sur 8 Sudeste 0 959.3 0.2 73
2019-07-22 02:00:00 21.2 4 Sudeste 8 Sudeste 0 959.6 1 72
2019-07-22 01:00:00 22.4 3 Este 8 Sudoeste 0 959.2 1.4 68
2019-07-22 00:00:00 24.2 4 Sudoeste 10 Sudoeste 0 959.1 1.8 63
2019-07-21 23:00:00 25.5 5 Sudoeste 12 Sudoeste 0 958.6 2 58
2019-07-21 22:00:00 27.3 7 Oeste 14 Noroeste 0 957.8 1.3 52
2019-07-21 21:00:00 29.8 10 Noroeste 23 Oeste 0 957.3 0.8 43
2019-07-21 20:00:00 31.8 10 Noroeste 22 Noroeste 0 956.6 -0.3 35
2019-07-21 19:00:00 32.4 11 Noroeste 22 Oeste 0 956.5 -0.8 32
2019-07-21 18:00:00 33 9 Noroeste 27 Noroeste 0 956.5 -1.1 31
2019-07-21 17:00:00 32.8 10 Oeste 19 Oeste 0 956.9 -1.1 27
2019-07-21 16:00:00 31.6 8 Oeste 18 Oeste 0 957.3 -1.3 30
2019-07-21 15:00:00 29.9 7 Oeste 18 Oeste 0 957.6 -1.6 32
2019-07-21 14:00:00 27.9 6 Noroeste 15 Oeste 0 958 -1.5 40
2019-07-21 13:00:00 25.5 7 Oeste 15 Oeste 0 958.6 -1.1 51
2019-07-21 12:00:00 23 6 Oeste 12 Oeste 0 959.2 -0.4 58
2019-07-21 11:00:00 20.3 6 Oeste 12 Oeste 0 959.5 0.3 67
2019-07-21 10:00:00 18.6 4 Oeste 11 Oeste 0 959.7 0.7 73
2019-07-21 09:00:00 17 2 Sudoeste 9 Sur 0 959.6 0.9 75
2019-07-21 08:00:00 15.4 0 Calma 7 Este 0 959.2 0.8 83
2019-07-21 07:00:00 15.2 4 Sudeste 8 Sudeste 0 959 0.7 83
2019-07-21 06:00:00 16 3 Sudoeste 9 Sudoeste 0 958.7 0.5 81
2019-07-21 05:00:00 16.2 0 Calma 8 Sudeste 0 958.4 0.3 79
2019-07-21 04:00:00 17 4 Sudeste 8 Sudeste 0 958.3 0.2 77
2019-07-21 03:00:00 18.3 3 Noroeste 11 Sudeste 0 958.2 0.3 74
2019-07-21 02:00:00 19 6 Sudeste 11 Sudeste 0 958.1 1 71
2019-07-21 01:00:00 20.2 4 Sudoeste 10 Sudoeste 0 958.1 2.1 68
2019-07-21 00:00:00 21 6 Oeste 21 Oeste 0 957.9 2.6 66
2019-07-20 23:00:00 22.9 6 Oeste 17 Oeste 0 957.1 2.3 59
2019-07-20 22:00:00 24.9 10 Oeste 22 Oeste 0 956 1.8 47
2019-07-20 21:00:00 27.6 13 Oeste 25 Noroeste 0 955.3 1.4 36
2019-07-20 20:00:00 28.9 15 Noroeste 29 Noroeste 0 954.8 0.9 34
2019-07-20 19:00:00 29.7 15 Noroeste 29 Noroeste 0 954.2 0.1 35
2019-07-20 18:00:00 31 11 Noroeste 28 Oeste 0 953.9 -0.6 32
2019-07-20 17:00:00 31.1 14 Noroeste 27 Oeste 0 953.9 -0.8 30
2019-07-20 16:00:00 30.6 8 Noroeste 24 Noroeste 0 954.1 -0.8 33
2019-07-20 15:00:00 30 8 Noroeste 23 Noroeste 0 954.5 -0.5 33
2019-07-20 14:00:00 28.6 6 Noroeste 17 Noroeste 0 954.7 -0.6 36
2019-07-20 13:00:00 26.9 6 Noroeste 14 Noroeste 0 954.9 -0.6 43
2019-07-20 12:00:00 24.5 5 Oeste 13 Oeste 0 955 -0.1 53
2019-07-20 11:00:00 22.4 5 Sudoeste 12 Oeste 0 955.3 0.6 61
2019-07-20 10:00:00 20.5 4 Sudoeste 10 Sudoeste 0 955.5 1.3 66
2019-07-20 09:00:00 19.1 3 Sudoeste 7 Sudoeste 0 955.1 1.1 71
2019-07-20 08:00:00 17.3 2 Este 5 Norte 0 954.7 0.9 78
2019-07-20 07:00:00 17 2 Sudeste 9 Sudeste 0 954.2 0.8 78
2019-07-20 06:00:00 17.9 4 Este 10 Oeste 0 954 0.6 74
2019-07-20 05:00:00 18.9 5 Oeste 11 Oeste 0 953.8 0.5 71
2019-07-20 04:00:00 20 3 Sudoeste 14 Sudoeste 0 953.4 0.2 66
2019-07-20 03:00:00 20.7 5 Sudoeste 16 Oeste 0 953.4 0.4 66
2019-07-20 02:00:00 21.4 4 Sudoeste 13 Sudoeste 0 953.3 0.8 67
2019-07-20 01:00:00 22.6 4 Oeste 14 Sudoeste 0 953.2 1.4 63
2019-07-20 00:00:00 23.8 7 Oeste 18 Sudoeste 0 953 1.7 60
2019-07-19 23:00:00 25.7 10 Oeste 21 Oeste 0 952.5 1.5 52
2019-07-19 22:00:00 27.3 9 Oeste 22 Noroeste 0 951.8 0.9 45
2019-07-19 21:00:00 30.1 8 Noroeste 23 Noroeste 0 951.3 0.3 40
2019-07-19 20:00:00 31.8 11 Noroeste 27 Oeste 0 951 0 31
2019-07-19 19:00:00 32.5 15 Noroeste 34 Noroeste 0 950.9 -0.5 23
2019-07-19 18:00:00 33.5 14 Oeste 34 Noroeste 0 951 -1.2 23
2019-07-19 17:00:00 33.5 18 Oeste 35 Noroeste 0 951 -1.7 24
2019-07-19 16:00:00 33.3 9 Noroeste 24 Oeste 0 951.4 -1.8 24
2019-07-19 15:00:00 31.7 10 Oeste 19 Oeste 0 952.2 -1.7 30
2019-07-19 14:00:00 29.6 8 Oeste 16 Oeste 0 952.7 -1.8 37
2019-07-19 13:00:00 27.1 6 Oeste 14 Oeste 0 953.2 -2 44
2019-07-19 12:00:00 24.6 5 Noroeste 13 Oeste 0 953.9 -1.5 51
2019-07-19 11:00:00 22.1 5 Sudoeste 10 Oeste 0 954.5 -0.8 59
2019-07-19 10:00:00 19.7 5 Noroeste 9 Oeste 0 955.2 -0.1 66
2019-07-19 09:00:00 18.4 2 Sudoeste 7 Sudeste 0 955.4 0.1 69
2019-07-19 08:00:00 15.7 0 Calma 6 Oeste 0 955.3 -0.1 80
2019-07-19 07:00:00 15.5 0 Calma 3 Norte 0 955.3 -0.4 80
2019-07-19 06:00:00 16.2 0 Calma 5 Oeste 0 955.3 -0.4 80
2019-07-19 05:00:00 17.1 0 Calma -- -- -- 955.4 -0.4 78
2019-07-19 04:00:00 18.1 0 Calma 5 Oeste 0 955.7 0.1 73
2019-07-19 03:00:00 19.5 2 Sur 10 Sur 0 955.7 0.2 69
2019-07-19 02:00:00 20 3 Sudeste 8 Sudeste 0 955.8 0.9 67
2019-07-19 01:00:00 21.4 5 Sudeste 10 Sudoeste 0 955.6 1.3 63
2019-07-19 00:00:00 22.9 4 Sudoeste 13 Sudoeste 0 955.5 1.5 60